Time;durP1;ratioP1;P1;durP2;ratioP2;P2;SDS_P1;SDS_P2;PMS_P1;PMS_P2;Temp;Humidity;BMP_temperature;BMP_pressure;BME280_temperature;BME280_humidity;BME280_pressure;Samples;Min_cycle;Max_cycle;Signal;HPM_P1;HPM_P2
2023/10/13 00:01:55;;;;;;;10.05;6.47;;;;;;;;;;5024537;28;20454;-71
2023/10/13 00:04:24;;;;;;;14.23;6.20;;;;;;;;;;5023375;28;20108;-71
2023/10/13 00:06:53;;;;;;;11.25;5.07;;;;;;;;;;5016844;28;20045;-71
2023/10/13 00:09:24;;;;;;;12.40;6.25;;;;;;;;;;5024839;28;20083;-71
2023/10/13 00:11:49;;;;;;;19.88;6.80;;;;;;;;;;5014887;28;20461;-71
2023/10/13 00:14:16;;;;;;;22.87;7.27;;;;;;;;;;5023229;28;20038;-71
2023/10/13 00:16:42;;;;;;;16.83;6.22;;;;;;;;;;5023576;28;20307;-71
2023/10/13 00:19:08;;;;;;;11.15;4.50;;;;;;;;;;5024448;28;20056;-71
2023/10/13 00:21:35;;;;;;;12.70;6.10;;;;;;;;;;5022068;28;20494;-71
2023/10/13 00:24:05;;;;;;;16.77;6.43;;;;;;;;;;5023238;28;20090;-71
2023/10/13 00:26:30;;;;;;;18.40;7.30;;;;;;;;;;5025201;28;20036;-71
2023/10/13 00:29:09;;;;;;;13.40;6.90;;;;;;;;;;5024338;28;20585;-71
2023/10/13 00:31:40;;;;;;;18.88;7.30;;;;;;;;;;5024983;28;20025;-71
2023/10/13 00:37:12;;;;;;;13.80;4.72;;;;;;;;;;5024706;28;20037;-71
2023/10/13 00:39:45;;;;;;;14.65;6.03;;;;;;;;;;5024514;28;20482;-71
2023/10/13 00:42:31;;;;;;;16.83;7.13;;;;;;;;;;5028871;28;20021;-71
2023/10/13 00:44:59;;;;;;;11.13;4.63;;;;;;;;;;5024055;28;20022;-71
2023/10/13 00:47:39;;;;;;;15.27;6.22;;;;;;;;;;5024959;28;20104;-71
2023/10/13 00:50:05;;;;;;;15.93;5.53;;;;;;;;;;5027770;28;20022;-71
2023/10/13 00:52:34;;;;;;;14.23;6.68;;;;;;;;;;5023859;28;20087;-71
2023/10/13 00:55:00;;;;;;;13.05;7.22;;;;;;;;;;5030229;28;20434;-71
2023/10/13 00:57:29;;;;;;;19.08;6.95;;;;;;;;;;5030627;28;20104;-71
2023/10/13 00:59:54;;;;;;;9.60;5.30;;;;;;;;;;5024938;28;20083;-71
2023/10/13 01:05:01;;;;;;;9.73;5.63;;;;;;;;;;5027038;28;20032;-72
2023/10/13 01:07:26;;;;;;;13.50;3.83;;;;;;;;;;5026961;28;20029;-72
2023/10/13 01:09:51;;;;;;;19.73;6.32;;;;;;;;;;5029568;28;20511;-72
2023/10/13 01:12:16;;;;;;;19.20;7.50;;;;;;;;;;5027835;28;20370;-72
2023/10/13 01:14:41;;;;;;;17.30;5.97;;;;;;;;;;5027384;28;20287;-72
2023/10/13 01:17:07;;;;;;;10.48;5.05;;;;;;;;;;5030663;28;20267;-72
2023/10/13 01:19:38;;;;;;;18.17;7.00;;;;;;;;;;5027540;28;20030;-71
2023/10/13 01:22:06;;;;;;;20.90;8.02;;;;;;;;;;5027481;28;20267;-71
2023/10/13 01:24:34;;;;;;;10.30;5.43;;;;;;;;;;5023736;28;20379;-71
2023/10/13 01:27:07;;;;;;;12.63;6.82;;;;;;;;;;5026601;28;20029;-72
2023/10/13 01:29:32;;;;;;;18.85;6.88;;;;;;;;;;5025299;28;20025;-72
2023/10/13 01:31:58;;;;;;;14.15;6.05;;;;;;;;;;5024748;28;20018;-72
2023/10/13 01:34:23;;;;;;;16.83;7.77;;;;;;;;;;5026707;28;20069;-72
2023/10/13 01:36:50;;;;;;;14.53;7.30;;;;;;;;;;5026951;28;20064;-72
2023/10/13 01:39:16;;;;;;;14.68;6.47;;;;;;;;;;5027271;28;20322;-72
2023/10/13 01:41:42;;;;;;;11.25;5.72;;;;;;;;;;5023182;28;20025;-72
2023/10/13 01:44:11;;;;;;;18.90;5.50;;;;;;;;;;5019741;28;20385;-72
2023/10/13 01:46:37;;;;;;;15.27;7.05;;;;;;;;;;5026923;28;20021;-72
2023/10/13 01:49:02;;;;;;;16.40;6.25;;;;;;;;;;5023675;28;20022;-72
2023/10/13 01:51:28;;;;;;;17.65;6.40;;;;;;;;;;5022582;28;20026;-72
2023/10/13 01:53:56;;;;;;;10.77;7.05;;;;;;;;;;5026045;28;20024;-72
2023/10/13 01:56:23;;;;;;;19.73;7.57;;;;;;;;;;5021155;28;20022;-72
2023/10/13 01:58:48;;;;;;;12.65;6.40;;;;;;;;;;5025681;28;20021;-72
2023/10/13 02:01:13;;;;;;;25.50;7.35;;;;;;;;;;5028104;28;20028;-72
2023/10/13 02:03:46;;;;;;;19.30;7.97;;;;;;;;;;5025734;28;20045;-72
2023/10/13 02:06:16;;;;;;;24.35;7.80;;;;;;;;;;5020552;28;20779;-72
2023/10/13 02:08:43;;;;;;;12.65;7.55;;;;;;;;;;5018792;28;20116;-72
2023/10/13 02:11:09;;;;;;;18.90;7.15;;;;;;;;;;5021345;28;20036;-72
2023/10/13 02:13:41;;;;;;;10.80;3.97;;;;;;;;;;5021266;28;20475;-72
2023/10/13 02:16:06;;;;;;;9.40;4.57;;;;;;;;;;5025820;28;20195;-72
2023/10/13 02:18:41;;;;;;;12.18;6.80;;;;;;;;;;5037525;28;20056;-72
2023/10/13 02:21:12;;;;;;;7.03;4.10;;;;;;;;;;5045383;28;20473;-72
2023/10/13 02:23:43;;;;;;;4.18;2.65;;;;;;;;;;5046029;28;20503;-72
2023/10/13 02:26:12;;;;;;;16.58;4.68;;;;;;;;;;5045051;28;20489;-72
2023/10/13 02:28:37;;;;;;;15.80;6.43;;;;;;;;;;5024033;28;20405;-73
2023/10/13 02:31:03;;;;;;;14.82;4.60;;;;;;;;;;5046187;28;20017;-72
2023/10/13 02:33:36;;;;;;;13.27;5.07;;;;;;;;;;5043624;28;20025;-72
2023/10/13 02:36:04;;;;;;;14.30;6.70;;;;;;;;;;5044007;28;20032;-72
2023/10/13 02:38:41;;;;;;;9.32;4.32;;;;;;;;;;5040021;28;20067;-72
2023/10/13 02:41:12;;;;;;;20.88;6.28;;;;;;;;;;5041006;28;20040;-72
2023/10/13 02:43:37;;;;;;;18.35;7.93;;;;;;;;;;5044190;28;20048;-72
2023/10/13 02:46:03;;;;;;;15.30;6.82;;;;;;;;;;5040770;28;20497;-72
2023/10/13 02:48:31;;;;;;;15.48;7.40;;;;;;;;;;5039591;28;20024;-72
2023/10/13 02:51:01;;;;;;;12.15;6.03;;;;;;;;;;5043573;28;20013;-72
2023/10/13 02:53:28;;;;;;;15.63;5.63;;;;;;;;;;5042131;28;20367;-72
2023/10/13 02:55:55;;;;;;;20.60;7.97;;;;;;;;;;5046089;28;20120;-72
2023/10/13 02:58:20;;;;;;;11.77;4.57;;;;;;;;;;5046328;28;20135;-72
2023/10/13 03:00:46;;;;;;;8.77;3.37;;;;;;;;;;5031465;28;20025;-72
2023/10/13 03:03:14;;;;;;;26.48;7.78;;;;;;;;;;5043484;28;20295;-72
2023/10/13 03:05:40;;;;;;;41.30;5.90;;;;;;;;;;5041269;28;20029;-72
2023/10/13 03:08:06;;;;;;;15.75;7.03;;;;;;;;;;5040804;28;20358;-73
2023/10/13 03:10:32;;;;;;;11.85;4.18;;;;;;;;;;5044331;28;20469;-72
2023/10/13 03:12:57;;;;;;;17.15;6.80;;;;;;;;;;5043113;28;20026;-72
2023/10/13 03:15:30;;;;;;;14.45;7.30;;;;;;;;;;5043926;28;20029;-72
2023/10/13 03:17:58;;;;;;;14.85;7.65;;;;;;;;;;5042071;28;20119;-72
2023/10/13 03:20:32;;;;;;;12.02;4.40;;;;;;;;;;5041116;28;20017;-72
2023/10/13 03:22:58;;;;;;;16.63;7.78;;;;;;;;;;5044163;28;20025;-72
2023/10/13 03:25:30;;;;;;;16.75;4.53;;;;;;;;;;5041552;28;20032;-72
2023/10/13 03:30:21;;;;;;;20.52;7.28;;;;;;;;;;5041418;28;20667;-72
2023/10/13 03:32:53;;;;;;;16.48;6.43;;;;;;;;;;5040082;28;20024;-72
2023/10/13 03:35:24;;;;;;;11.35;5.80;;;;;;;;;;5040562;28;20042;-72
2023/10/13 03:37:52;;;;;;;19.83;8.13;;;;;;;;;;5041014;28;20393;-72
2023/10/13 03:45:24;;;;;;;8.07;4.45;;;;;;;;;;5043824;28;20024;-72
2023/10/13 03:47:51;;;;;;;8.30;4.15;;;;;;;;;;5049141;28;20013;-72
2023/10/13 03:50:22;;;;;;;15.88;7.65;;;;;;;;;;5048213;28;20058;-72
2023/10/13 03:52:48;;;;;;;16.55;6.15;;;;;;;;;;5038461;28;20028;-72
2023/10/13 03:55:17;;;;;;;15.57;5.97;;;;;;;;;;5042068;28;20017;-72
2023/10/13 03:57:42;;;;;;;15.75;4.53;;;;;;;;;;5042398;28;20469;-72
2023/10/13 04:00:09;;;;;;;18.25;6.85;;;;;;;;;;5026687;28;20082;-72
2023/10/13 04:02:36;;;;;;;17.33;5.10;;;;;;;;;;5045594;28;20059;-72
2023/10/13 04:05:09;;;;;;;10.15;4.95;;;;;;;;;;5043445;28;20053;-72
2023/10/13 04:08:09;;;;;;;10.75;3.80;;;;;;;;;;5025922;28;20385;-72
2023/10/13 04:21:39;;;;;;;12.95;7.07;;;;;;;;;;5042070;28;20032;-72
2023/10/13 04:27:15;;;;;;;17.05;6.78;;;;;;;;;;5044351;28;20023;-72
2023/10/13 04:29:45;;;;;;;19.92;6.25;;;;;;;;;;5039009;28;20039;-72
2023/10/13 04:32:13;;;;;;;14.15;7.05;;;;;;;;;;5045531;28;20021;-72
2023/10/13 04:34:39;;;;;;;12.20;3.65;;;;;;;;;;5043806;28;20081;-72
2023/10/13 04:37:23;;;;;;;6.80;4.53;;;;;;;;;;5041471;28;20698;-72
2023/10/13 04:39:56;;;;;;;10.40;5.00;;;;;;;;;;5041045;28;20051;-72
2023/10/13 04:42:39;;;;;;;9.10;4.55;;;;;;;;;;5043928;28;20060;-72
2023/10/13 04:45:16;;;;;;;16.75;6.97;;;;;;;;;;5044871;28;20035;-72
2023/10/13 04:47:47;;;;;;;19.80;6.60;;;;;;;;;;5043402;28;20029;-72
2023/10/13 04:50:22;;;;;;;9.77;5.43;;;;;;;;;;5045067;28;20025;-72
2023/10/13 04:53:27;;;;;;;17.75;7.22;;;;;;;;;;5042057;28;20481;-72
2023/10/13 04:58:11;;;;;;;17.13;7.20;;;;;;;;;;5046243;28;20123;-72
2023/10/13 05:01:16;;;;;;;13.65;6.05;;;;;;;;;;5042218;28;20028;-73
2023/10/13 05:04:02;;;;;;;18.08;6.82;;;;;;;;;;5040642;28;20078;-72
2023/10/13 05:47:50;;;;;;;16.70;5.78;;;;;;;;;;5027708;28;20083;-73
2023/10/13 06:31:06;;;;;;;20.70;6.10;;;;;;;;;;5025932;28;20083;-73
2023/10/13 06:33:33;;;;;;;15.73;7.65;;;;;;;;;;5021312;28;20049;-73
2023/10/13 06:35:59;;;;;;;17.20;6.68;;;;;;;;;;5024343;28;20018;-73
2023/10/13 06:38:24;;;;;;;21.35;7.57;;;;;;;;;;5025538;28;20044;-73
2023/10/13 06:40:51;;;;;;;15.82;7.68;;;;;;;;;;5025533;28;20100;-73
2023/10/13 06:43:17;;;;;;;21.08;6.43;;;;;;;;;;5028009;28;20021;-73
2023/10/13 06:45:43;;;;;;;15.25;7.30;;;;;;;;;;5023945;28;20022;-73
2023/10/13 06:48:11;;;;;;;16.75;7.45;;;;;;;;;;5027258;28;20030;-73
2023/10/13 06:50:41;;;;;;;19.70;7.05;;;;;;;;;;5024469;28;20067;-73
2023/10/13 06:53:07;;;;;;;15.35;6.47;;;;;;;;;;5025776;28;20452;-72
2023/10/13 06:55:35;;;;;;;21.30;8.00;;;;;;;;;;5024705;28;20069;-73
2023/10/13 06:58:06;;;;;;;18.38;6.93;;;;;;;;;;5024071;28;20037;-73
2023/10/13 07:00:34;;;;;;;11.10;4.07;;;;;;;;;;5022848;28;20052;-73
2023/10/13 07:03:05;;;;;;;23.55;5.95;;;;;;;;;;5024972;28;20029;-73
2023/10/13 07:05:43;;;;;;;4.45;2.78;;;;;;;;;;5020082;28;20108;-73
2023/10/13 07:08:09;;;;;;;12.98;3.63;;;;;;;;;;5022684;28;20021;-73
2023/10/13 07:10:51;;;;;;;17.75;6.03;;;;;;;;;;5022810;28;20358;-73
2023/10/13 07:13:17;;;;;;;9.60;3.58;;;;;;;;;;5020343;28;20052;-73
2023/10/13 07:15:44;;;;;;;8.68;2.78;;;;;;;;;;5021960;28;20049;-72
2023/10/13 07:18:13;;;;;;;14.60;5.47;;;;;;;;;;5032378;28;20028;-73
2023/10/13 07:20:43;;;;;;;12.52;4.82;;;;;;;;;;5041596;28;20021;-73
2023/10/13 07:23:11;;;;;;;8.98;4.50;;;;;;;;;;5044562;28;20048;-73
2023/10/13 07:25:37;;;;;;;15.00;4.28;;;;;;;;;;5043234;28;20086;-72
2023/10/13 07:28:08;;;;;;;14.90;5.65;;;;;;;;;;5043925;28;20020;-72
2023/10/13 07:30:41;;;;;;;8.45;4.07;;;;;;;;;;5043595;28;20021;-72
2023/10/13 07:33:06;;;;;;;13.90;5.85;;;;;;;;;;5040750;28;20301;-72
2023/10/13 07:35:35;;;;;;;8.98;3.28;;;;;;;;;;5040938;28;20104;-72
2023/10/13 07:38:00;;;;;;;15.02;5.07;;;;;;;;;;5042829;28;20086;-72
2023/10/13 07:42:51;;;;;;;9.77;3.57;;;;;;;;;;5042303;28;20061;-73
2023/10/13 07:45:24;;;;;;;30.73;5.55;;;;;;;;;;5042777;28;20295;-73
2023/10/13 07:47:50;;;;;;;13.23;5.47;;;;;;;;;;5042966;28;20059;-73
2023/10/13 07:50:24;;;;;;;14.13;4.80;;;;;;;;;;5044058;28;20048;-73
2023/10/13 07:53:00;;;;;;;21.35;5.85;;;;;;;;;;5040262;28;20029;-73
2023/10/13 07:55:26;;;;;;;24.63;7.35;;;;;;;;;;5041951;28;20057;-74
2023/10/13 07:57:54;;;;;;;18.85;6.70;;;;;;;;;;5040599;28;20063;-73
2023/10/13 08:00:29;;;;;;;15.63;6.68;;;;;;;;;;5042432;28;20025;-73
2023/10/13 08:03:09;;;;;;;14.98;5.95;;;;;;;;;;5045063;28;20036;-73
2023/10/13 08:05:55;;;;;;;28.20;6.28;;;;;;;;;;5043388;28;20088;-73
2023/10/13 08:08:21;;;;;;;14.27;6.03;;;;;;;;;;5043219;28;20070;-73
2023/10/13 08:10:47;;;;;;;20.45;5.70;;;;;;;;;;5041220;28;20021;-73
2023/10/13 08:13:12;;;;;;;16.13;2.97;;;;;;;;;;5043283;28;20500;-73
2023/10/13 08:15:47;;;;;;;22.00;4.60;;;;;;;;;;5041377;28;20310;-73
2023/10/13 08:18:35;;;;;;;16.40;5.00;;;;;;;;;;5041907;28;20439;-73
2023/10/13 08:21:03;;;;;;;21.33;4.35;;;;;;;;;;5042306;28;20025;-73
2023/10/13 08:32:13;;;;;;;27.45;5.65;;;;;;;;;;5043692;28;20057;-73
2023/10/13 08:34:39;;;;;;;18.95;5.40;;;;;;;;;;5044318;28;20035;-73
2023/10/13 08:37:19;;;;;;;17.83;6.10;;;;;;;;;;5043695;28;20021;-73
2023/10/13 08:48:15;;;;;;;16.38;4.50;;;;;;;;;;5043639;28;20100;-73
2023/10/13 09:04:32;;;;;;;12.55;5.47;;;;;;;;;;5046974;28;20036;-74
2023/10/13 09:12:19;;;;;;;8.05;2.08;;;;;;;;;;5047682;28;20077;-73
2023/10/13 09:14:57;;;;;;;18.10;5.55;;;;;;;;;;5028378;28;20378;-73
2023/10/13 09:17:38;;;;;;;14.35;4.68;;;;;;;;;;5046150;28;20428;-73
2023/10/13 09:25:34;;;;;;;20.13;5.25;;;;;;;;;;5028131;28;20099;-73
2023/10/13 09:28:00;;;;;;;9.07;3.60;;;;;;;;;;5030020;28;20024;-72
2023/10/13 09:30:28;;;;;;;30.02;4.95;;;;;;;;;;5029625;28;20144;-72
2023/10/13 09:33:08;;;;;;;13.13;4.47;;;;;;;;;;5026603;28;20014;-72
2023/10/13 09:35:36;;;;;;;23.10;5.68;;;;;;;;;;5026034;28;20021;-72
2023/10/13 09:38:02;;;;;;;19.55;4.50;;;;;;;;;;5026284;28;20032;-72
2023/10/13 09:40:37;;;;;;;4.75;3.47;;;;;;;;;;5028938;28;20049;-72
2023/10/13 09:43:07;;;;;;;11.57;4.25;;;;;;;;;;5029173;28;20026;-72
2023/10/13 09:45:36;;;;;;;17.55;5.10;;;;;;;;;;5028466;28;20009;-72
2023/10/13 09:48:06;;;;;;;16.67;5.43;;;;;;;;;;5028668;28;20053;-72
2023/10/13 09:50:34;;;;;;;13.55;4.00;;;;;;;;;;5027366;28;20017;-72
2023/10/13 09:53:00;;;;;;;12.93;4.20;;;;;;;;;;5020075;28;20096;-72
2023/10/13 09:55:30;;;;;;;12.32;3.72;;;;;;;;;;5030191;28;20108;-72
2023/10/13 09:58:17;;;;;;;14.55;5.57;;;;;;;;;;5028683;28;20021;-72
2023/10/13 10:04:07;;;;;;;14.20;5.28;;;;;;;;;;4995780;28;20064;-72
2023/10/13 10:06:39;;;;;;;12.10;4.63;;;;;;;;;;5030663;28;20371;-72
2023/10/13 10:09:11;;;;;;;27.08;5.85;;;;;;;;;;5029485;28;20382;-72
2023/10/13 10:11:48;;;;;;;20.95;5.22;;;;;;;;;;5022196;28;20013;-72
2023/10/13 10:14:17;;;;;;;13.65;4.53;;;;;;;;;;5026268;28;20029;-72
2023/10/13 10:16:54;;;;;;;8.57;5.27;;;;;;;;;;5027024;28;20005;-72
2023/10/13 10:19:20;;;;;;;13.32;5.50;;;;;;;;;;5023410;28;20101;-72
2023/10/13 10:21:45;;;;;;;10.73;3.60;;;;;;;;;;5031339;28;20648;-72
2023/10/13 10:24:14;;;;;;;6.95;3.58;;;;;;;;;;5013856;28;20017;-72
2023/10/13 10:26:51;;;;;;;13.03;5.17;;;;;;;;;;5029186;28;20404;-72
2023/10/13 10:29:16;;;;;;;10.27;5.43;;;;;;;;;;5026545;28;20028;-72
2023/10/13 10:31:45;;;;;;;15.50;6.85;;;;;;;;;;5030553;28;20017;-72
2023/10/13 10:34:21;;;;;;;13.40;4.53;;;;;;;;;;5031394;28;20028;-72
2023/10/13 10:36:56;;;;;;;15.20;5.57;;;;;;;;;;5031473;28;20493;-72
2023/10/13 10:39:33;;;;;;;16.27;5.88;;;;;;;;;;5029907;28;20094;-71
2023/10/13 10:42:07;;;;;;;17.58;5.90;;;;;;;;;;5029776;28;20397;-72
2023/10/13 10:44:42;;;;;;;17.67;7.28;;;;;;;;;;5022495;28;20068;-72
2023/10/13 10:47:11;;;;;;;4.72;2.83;;;;;;;;;;5024363;28;20029;-71
2023/10/13 10:49:37;;;;;;;17.80;6.43;;;;;;;;;;5031269;28;20029;-72
2023/10/13 10:52:04;;;;;;;15.95;6.43;;;;;;;;;;5019989;28;20018;-71
2023/10/13 10:54:32;;;;;;;14.15;4.85;;;;;;;;;;5017457;28;20565;-72
2023/10/13 10:57:17;;;;;;;12.65;4.80;;;;;;;;;;5023154;28;20014;-70
2023/10/13 10:59:42;;;;;;;8.07;4.05;;;;;;;;;;5031042;28;20028;-73
2023/10/13 11:02:08;;;;;;;17.00;6.28;;;;;;;;;;5029704;28;20029;-72
2023/10/13 11:04:34;;;;;;;14.45;6.25;;;;;;;;;;5029206;28;20029;-72
2023/10/13 11:06:59;;;;;;;17.30;6.43;;;;;;;;;;5030430;28;20021;-72
2023/10/13 11:11:52;;;;;;;19.95;7.13;;;;;;;;;;5014737;28;20029;-72
2023/10/13 11:14:24;;;;;;;24.08;6.30;;;;;;;;;;5030628;28;20567;-72
2023/10/13 11:17:00;;;;;;;12.90;4.93;;;;;;;;;;5029790;28;20104;-72
2023/10/13 11:19:35;;;;;;;14.45;5.43;;;;;;;;;;5029162;28;20366;-72
2023/10/13 11:22:10;;;;;;;14.43;5.30;;;;;;;;;;5029262;28;20120;-72
2023/10/13 11:24:44;;;;;;;12.70;4.43;;;;;;;;;;5029094;28;20136;-72
2023/10/13 11:27:36;;;;;;;15.98;6.45;;;;;;;;;;5030426;28;20014;-72
2023/10/13 11:30:12;;;;;;;9.57;5.00;;;;;;;;;;5028971;28;20500;-72
2023/10/13 11:32:41;;;;;;;12.55;4.05;;;;;;;;;;5029905;28;20108;-72
2023/10/13 11:35:20;;;;;;;17.25;6.10;;;;;;;;;;5028330;28;20022;-72
2023/10/13 11:37:55;;;;;;;10.68;4.13;;;;;;;;;;5020867;28;20491;-72
2023/10/13 11:40:43;;;;;;;18.40;6.78;;;;;;;;;;5018414;28;20038;-72
2023/10/13 11:43:05;;;;;;;14.93;6.40;;;;;;;;;;5023989;28;20474;-72
2023/10/13 11:45:35;;;;;;;11.60;4.03;;;;;;;;;;5027850;28;20104;-72
2023/10/13 11:48:01;;;;;;;23.27;6.28;;;;;;;;;;5026028;28;20055;-72
2023/10/13 11:50:33;;;;;;;9.00;3.05;;;;;;;;;;5027451;28;20350;-72
2023/10/13 11:52:58;;;;;;;13.48;4.07;;;;;;;;;;5024076;28;20541;-72
2023/10/13 11:55:24;;;;;;;13.25;4.22;;;;;;;;;;5026157;28;20033;-72
2023/10/13 11:57:49;;;;;;;17.63;5.00;;;;;;;;;;5017500;28;20503;-72
2023/10/13 12:06:03;;;;;;;20.02;5.47;;;;;;;;;;5025575;28;20037;-72
2023/10/13 12:08:32;;;;;;;17.70;5.90;;;;;;;;;;5026253;28;20028;-72
2023/10/13 12:11:30;;;;;;;12.13;4.45;;;;;;;;;;5024392;28;20399;-72
2023/10/13 12:13:46;;;;;;;20.70;4.90;;;;;;;;;;5026889;28;20087;-72
2023/10/13 12:16:12;;;;;;;16.52;4.13;;;;;;;;;;5011015;28;20491;-72
2023/10/13 12:18:37;;;;;;;13.55;5.03;;;;;;;;;;5038260;28;20128;-72
2023/10/13 12:21:07;;;;;;;20.17;3.40;;;;;;;;;;5049414;28;20048;-72
2023/10/13 12:23:33;;;;;;;;;;;;;;;;;;5045750;28;20634;-72
2023/10/13 12:25:59;;;;;;;27.58;6.47;;;;;;;;;;5046598;28;20007;-72
2023/10/13 12:28:26;;;;;;;15.57;5.07;;;;;;;;;;5048302;28;20013;-72
2023/10/13 12:30:52;;;;;;;23.05;6.32;;;;;;;;;;5046267;28;20039;-72
2023/10/13 12:33:24;;;;;;;9.13;3.53;;;;;;;;;;5045089;28;20036;-72
2023/10/13 12:52:15;;;;;;;12.80;5.05;;;;;;;;;;5044758;28;20013;-72
2023/10/13 12:54:42;;;;;;;18.00;5.30;;;;;;;;;;5049028;28;20495;-72
2023/10/13 12:57:09;;;;;;;11.65;4.45;;;;;;;;;;5045909;28;20396;-72
2023/10/13 12:59:34;;;;;;;4.50;2.30;;;;;;;;;;5048616;28;20382;-72
2023/10/13 13:01:59;;;;;;;17.45;4.68;;;;;;;;;;5051244;28;20059;-72
2023/10/13 13:04:28;;;;;;;10.97;5.10;;;;;;;;;;5042642;28;20021;-73
2023/10/13 13:06:56;;;;;;;11.60;4.25;;;;;;;;;;5039816;28;20053;-73
2023/10/13 13:09:27;;;;;;;8.00;2.73;;;;;;;;;;5049015;28;20118;-73
2023/10/13 13:11:57;;;;;;;13.68;4.88;;;;;;;;;;5048199;28;20263;-72
2023/10/13 13:14:22;;;;;;;23.90;5.23;;;;;;;;;;5045064;28;20021;-73
2023/10/13 13:16:48;;;;;;;19.10;3.65;;;;;;;;;;5045855;28;20009;-74
2023/10/13 13:19:14;;;;;;;13.40;5.50;;;;;;;;;;5042845;28;20424;-72
2023/10/13 13:21:39;;;;;;;17.50;4.53;;;;;;;;;;5048062;28;20024;-72
2023/10/13 13:24:10;;;;;;;16.20;5.33;;;;;;;;;;5045947;28;20630;-73
2023/10/13 13:26:36;;;;;;;13.00;4.78;;;;;;;;;;5046441;28;20025;-73
2023/10/13 13:29:01;;;;;;;16.08;5.35;;;;;;;;;;5040625;28;20025;-73
2023/10/13 13:31:29;;;;;;;16.17;4.17;;;;;;;;;;5040618;28;20048;-73
2023/10/13 13:33:54;;;;;;;18.85;3.90;;;;;;;;;;5038531;28;20052;-73
2023/10/13 13:36:19;;;;;;;16.90;5.85;;;;;;;;;;5038161;28;20258;-73
2023/10/13 13:38:49;;;;;;;17.30;4.68;;;;;;;;;;5033338;28;20493;-73
2023/10/13 13:41:17;;;;;;;21.50;5.18;;;;;;;;;;5041460;28;20079;-73
2023/10/13 13:43:55;;;;;;;17.48;4.57;;;;;;;;;;5034201;28;20026;-73
2023/10/13 13:46:24;;;;;;;17.88;4.10;;;;;;;;;;5036909;28;20025;-73
2023/10/13 13:48:51;;;;;;;17.50;5.05;;;;;;;;;;5044235;28;20074;-73
2023/10/13 13:51:19;;;;;;;13.80;3.65;;;;;;;;;;5040579;28;20026;-73
2023/10/13 13:53:45;;;;;;;6.75;3.25;;;;;;;;;;5037189;28;20032;-73
2023/10/13 13:56:18;;;;;;;17.27;4.38;;;;;;;;;;5045639;28;20103;-73
2023/10/13 13:58:46;;;;;;;18.33;4.85;;;;;;;;;;5046029;28;20043;-73
2023/10/13 14:01:15;;;;;;;36.33;5.30;;;;;;;;;;5042096;28;20075;-73
2023/10/13 14:03:47;;;;;;;21.92;4.65;;;;;;;;;;5040829;28;20048;-73
2023/10/13 14:06:17;;;;;;;22.88;5.85;;;;;;;;;;5041594;28;20036;-73
2023/10/13 14:08:44;;;;;;;24.17;6.00;;;;;;;;;;5042549;28;20047;-72
2023/10/13 14:13:51;;;;;;;14.52;4.53;;;;;;;;;;5040215;28;20454;-73
2023/10/13 14:16:16;;;;;;;30.55;7.88;;;;;;;;;;5037722;28;20017;-73
2023/10/13 14:18:45;;;;;;;24.77;5.75;;;;;;;;;;5044184;28;20055;-73
2023/10/13 14:21:16;;;;;;;16.80;5.97;;;;;;;;;;5040698;28;20021;-73
2023/10/13 14:23:42;;;;;;;18.40;5.13;;;;;;;;;;5035743;28;20486;-73
2023/10/13 14:26:09;;;;;;;14.18;4.85;;;;;;;;;;5031404;28;20031;-73
2023/10/13 14:28:34;;;;;;;18.02;5.45;;;;;;;;;;5044891;28;20017;-73
2023/10/13 14:31:09;;;;;;;22.67;3.67;;;;;;;;;;5045698;28;21377;-73
2023/10/13 14:33:36;;;;;;;19.73;6.38;;;;;;;;;;5045483;28;20020;-72
2023/10/13 14:36:04;;;;;;;21.25;5.57;;;;;;;;;;5038006;28;20039;-72
2023/10/13 14:38:29;;;;;;;7.95;2.42;;;;;;;;;;5041507;28;20033;-73
2023/10/13 14:40:58;;;;;;;17.30;4.82;;;;;;;;;;5043582;28;20020;-73
2023/10/13 14:43:27;;;;;;;13.48;5.30;;;;;;;;;;5048834;28;20043;-73
2023/10/13 14:45:52;;;;;;;15.27;4.17;;;;;;;;;;5045452;28;20380;-73
2023/10/13 14:48:17;;;;;;;17.23;4.35;;;;;;;;;;5046392;28;20485;-73
2023/10/13 14:50:42;;;;;;;14.03;4.50;;;;;;;;;;5047063;28;20017;-73
2023/10/13 14:53:08;;;;;;;15.65;5.20;;;;;;;;;;5046512;28;20013;-73
2023/10/13 14:55:39;;;;;;;18.67;4.43;;;;;;;;;;5044768;28;20049;-73
2023/10/13 14:58:07;;;;;;;13.38;3.78;;;;;;;;;;5044012;28;20290;-73
2023/10/13 15:00:34;;;;;;;22.40;4.78;;;;;;;;;;5046556;28;20025;-73
2023/10/13 15:03:05;;;;;;;24.00;5.32;;;;;;;;;;5042575;28;20492;-73
2023/10/13 15:05:31;;;;;;;23.02;4.38;;;;;;;;;;5045228;28;20071;-73
2023/10/13 15:07:56;;;;;;;20.17;6.00;;;;;;;;;;5040322;28;20021;-73
2023/10/13 15:10:24;;;;;;;27.40;5.03;;;;;;;;;;5036528;28;20118;-73
2023/10/13 15:12:49;;;;;;;26.75;5.65;;;;;;;;;;5039749;28;20268;-73
2023/10/13 15:15:19;;;;;;;20.92;4.35;;;;;;;;;;5045326;28;20021;-73
2023/10/13 15:17:44;;;;;;;21.63;5.28;;;;;;;;;;5043951;28;20523;-73
2023/10/13 15:20:10;;;;;;;24.00;4.45;;;;;;;;;;5047048;28;20076;-73
2023/10/13 15:22:37;;;;;;;8.70;2.55;;;;;;;;;;5039147;28;20017;-73
2023/10/13 15:25:16;;;;;;;23.42;6.55;;;;;;;;;;5037281;28;20021;-73
2023/10/13 15:27:42;;;;;;;23.83;5.53;;;;;;;;;;5024297;28;20021;-73
2023/10/13 15:30:19;;;;;;;17.63;5.35;;;;;;;;;;5040055;28;20366;-73
2023/10/13 15:32:45;;;;;;;18.63;4.43;;;;;;;;;;5045483;28;20024;-73
2023/10/13 15:35:12;;;;;;;16.95;5.57;;;;;;;;;;5044434;28;20402;-73
2023/10/13 15:37:37;;;;;;;15.18;5.43;;;;;;;;;;5042450;28;20024;-73
2023/10/13 15:40:04;;;;;;;18.23;4.00;;;;;;;;;;5040941;28;20030;-73
2023/10/13 15:42:29;;;;;;;16.40;3.97;;;;;;;;;;5044605;28;20263;-73
2023/10/13 15:44:54;;;;;;;15.77;4.13;;;;;;;;;;5042448;28;20045;-73
2023/10/13 15:47:19;;;;;;;14.63;4.80;;;;;;;;;;5042828;28;20018;-73
2023/10/13 15:49:45;;;;;;;24.20;5.78;;;;;;;;;;5040436;28;20286;-73
2023/10/13 15:52:10;;;;;;;10.63;4.13;;;;;;;;;;5040186;28;20389;-73
2023/10/13 15:54:35;;;;;;;15.37;5.20;;;;;;;;;;5041961;28;20025;-74
2023/10/13 15:57:01;;;;;;;17.90;5.10;;;;;;;;;;5039259;28;20283;-74
2023/10/13 15:59:26;;;;;;;22.20;5.75;;;;;;;;;;5042104;28;20017;-74
2023/10/13 16:01:54;;;;;;;15.07;5.10;;;;;;;;;;5037406;28;20370;-73
2023/10/13 16:04:19;;;;;;;14.32;3.55;;;;;;;;;;5038683;28;20330;-74
2023/10/13 16:06:50;;;;;;;14.67;4.70;;;;;;;;;;5039213;28;20012;-74
2023/10/13 16:09:19;;;;;;;15.52;4.80;;;;;;;;;;5045259;28;20020;-74
2023/10/13 16:11:45;;;;;;;24.88;4.70;;;;;;;;;;5045428;28;20013;-74
2023/10/13 16:14:15;;;;;;;13.63;3.88;;;;;;;;;;5039221;28;20481;-74
2023/10/13 16:16:40;;;;;;;23.30;4.28;;;;;;;;;;5037249;28;20092;-74
2023/10/13 16:19:06;;;;;;;13.00;4.10;;;;;;;;;;5025954;28;20109;-74
2023/10/13 16:21:33;;;;;;;17.23;5.32;;;;;;;;;;5017132;28;20068;-74
2023/10/13 16:23:59;;;;;;;11.95;4.43;;;;;;;;;;5013823;28;20097;-74
2023/10/13 16:26:25;;;;;;;17.13;7.28;;;;;;;;;;5019888;28;20389;-73
2023/10/13 16:28:58;;;;;;;14.95;4.70;;;;;;;;;;5004455;28;20014;-73
2023/10/13 16:31:27;;;;;;;15.52;6.05;;;;;;;;;;5015823;28;20014;-73
2023/10/13 16:33:54;;;;;;;15.80;4.90;;;;;;;;;;5013767;28;20029;-73
2023/10/13 16:36:22;;;;;;;13.13;4.38;;;;;;;;;;5011317;28;20076;-73
2023/10/13 16:38:47;;;;;;;16.42;4.53;;;;;;;;;;5020648;28;20022;-73
2023/10/13 16:41:12;;;;;;;10.27;4.82;;;;;;;;;;5016098;28;20128;-74
2023/10/13 16:43:38;;;;;;;32.90;9.33;;;;;;;;;;5018452;28;20025;-74
2023/10/13 16:46:06;;;;;;;18.30;5.50;;;;;;;;;;5026572;28;20027;-74
2023/10/13 16:48:31;;;;;;;16.10;7.25;;;;;;;;;;5026152;28;20014;-73
2023/10/13 16:50:59;;;;;;;23.70;7.43;;;;;;;;;;5025746;28;20024;-74
2023/10/13 16:53:24;;;;;;;24.95;8.52;;;;;;;;;;5023216;28;20068;-74
2023/10/13 16:55:49;;;;;;;31.67;12.68;;;;;;;;;;5024591;28;22017;-74
2023/10/13 16:58:14;;;;;;;17.37;6.57;;;;;;;;;;5027295;28;20024;-74
2023/10/13 17:00:43;;;;;;;16.67;7.00;;;;;;;;;;5027165;28;20049;-73
2023/10/13 17:03:09;;;;;;;30.75;8.95;;;;;;;;;;5026306;28;20022;-73
2023/10/13 17:05:43;;;;;;;22.67;6.65;;;;;;;;;;5023557;28;20090;-74
2023/10/13 17:08:09;;;;;;;17.30;6.63;;;;;;;;;;5023017;28;20059;-74
2023/10/13 17:10:36;;;;;;;12.15;3.97;;;;;;;;;;5024142;28;20041;-74
2023/10/13 17:13:04;;;;;;;23.00;6.32;;;;;;;;;;5025138;28;20419;-73
2023/10/13 17:15:31;;;;;;;17.33;5.10;;;;;;;;;;5027696;28;20017;-73
2023/10/13 17:17:58;;;;;;;15.63;6.50;;;;;;;;;;5025942;28;20106;-73
2023/10/13 17:20:24;;;;;;;19.30;6.78;;;;;;;;;;5030647;28;20989;-73
2023/10/13 17:22:49;;;;;;;11.00;5.55;;;;;;;;;;5031189;28;20394;-73
2023/10/13 17:25:15;;;;;;;18.40;6.13;;;;;;;;;;5030099;28;20036;-73
2023/10/13 17:27:40;;;;;;;25.65;8.10;;;;;;;;;;5028431;28;20462;-73
2023/10/13 17:30:06;;;;;;;16.75;6.32;;;;;;;;;;5030143;28;20479;-73
2023/10/13 17:32:32;;;;;;;10.80;3.90;;;;;;;;;;5030897;28;20160;-73
2023/10/13 17:34:58;;;;;;;14.02;4.72;;;;;;;;;;5027265;28;20032;-73
2023/10/13 17:37:23;;;;;;;16.73;5.70;;;;;;;;;;5029170;28;20156;-73
2023/10/13 17:39:49;;;;;;;11.97;4.63;;;;;;;;;;5029798;28;20025;-74
2023/10/13 17:42:14;;;;;;;25.63;5.22;;;;;;;;;;5029542;28;20025;-74
2023/10/13 17:44:39;;;;;;;17.70;7.05;;;;;;;;;;5026555;28;20091;-74
2023/10/13 17:47:10;;;;;;;15.38;7.10;;;;;;;;;;5031118;28;20068;-74
2023/10/13 17:49:35;;;;;;;18.48;6.50;;;;;;;;;;5031225;28;20021;-74